sensor_id;sensor_type;location;lat;lon;timestamp;pressure;altitude;pressure_sealevel;temperature;humidity
76108;BME280;64834;52.516;10.528;2022-10-31T16:40:02;101241.47;;;13.87;86.09
76108;BME280;64834;52.516;10.528;2022-10-31T16:42:28;101232.31;;;13.79;86.16
76108;BME280;64834;52.516;10.528;2022-10-31T16:44:53;101226.78;;;13.74;86.52
76108;BME280;64834;52.516;10.528;2022-10-31T16:47:19;101231.53;;;13.81;86.43
76108;BME280;64834;52.516;10.528;2022-10-31T16:49:47;101233.28;;;13.81;86.29
76108;BME280;64834;52.516;10.528;2022-10-31T16:52:13;101230.09;;;13.70;86.47
76108;BME280;64834;52.516;10.528;2022-10-31T16:54:39;101232.50;;;13.65;86.72
76108;BME280;64834;52.516;10.528;2022-10-31T16:57:05;101229.34;;;13.72;86.63
76108;BME280;64834;52.516;10.528;2022-10-31T16:59:32;101224.81;;;13.70;86.55
76108;BME280;64834;52.516;10.528;2022-10-31T17:01:58;101225.75;;;13.70;86.74
76108;BME280;64834;52.516;10.528;2022-10-31T17:04:24;101220.97;;;13.63;86.92
76108;BME280;64834;52.516;10.528;2022-10-31T17:06:49;101214.75;;;13.61;86.82
76108;BME280;64834;52.516;10.528;2022-10-31T17:09:15;101218.19;;;13.60;87.00
76108;BME280;64834;52.516;10.528;2022-10-31T17:11:45;101229.22;;;13.53;87.44
76108;BME280;64834;52.516;10.528;2022-10-31T17:14:10;101220.00;;;13.61;87.41
76108;BME280;64834;52.516;10.528;2022-10-31T17:16:36;101213.00;;;13.62;87.04
76108;BME280;64834;52.516;10.528;2022-10-31T17:19:02;101201.66;;;13.63;87.06
76108;BME280;64834;52.516;10.528;2022-10-31T17:21:36;101206.94;;;13.63;87.30
76108;BME280;64834;52.516;10.528;2022-10-31T17:24:02;101211.22;;;13.61;87.18
76108;BME280;64834;52.516;10.528;2022-10-31T17:26:28;101216.63;;;13.64;87.09
76108;BME280;64834;52.516;10.528;2022-10-31T17:28:53;101213.25;;;13.66;86.85
76108;BME280;64834;52.516;10.528;2022-10-31T17:31:28;101211.59;;;13.68;87.32
76108;BME280;64834;52.516;10.528;2022-10-31T17:33:55;101193.94;;;13.66;87.38
76108;BME280;64834;52.516;10.528;2022-10-31T17:36:20;101184.84;;;13.59;87.73
76108;BME280;64834;52.516;10.528;2022-10-31T17:38:46;101200.78;;;13.62;87.84
76108;BME280;64834;52.516;10.528;2022-10-31T17:41:11;101209.97;;;13.70;87.90
76108;BME280;64834;52.516;10.528;2022-10-31T17:43:36;101195.81;;;13.68;87.72
76108;BME280;64834;52.516;10.528;2022-10-31T17:46:02;101202.22;;;13.73;87.96
76108;BME280;64834;52.516;10.528;2022-10-31T17:48:27;101199.59;;;13.73;88.06
76108;BME280;64834;52.516;10.528;2022-10-31T17:50:53;101198.44;;;13.68;88.09
76108;BME280;64834;52.516;10.528;2022-10-31T17:53:18;101203.94;;;13.73;88.32
76108;BME280;64834;52.516;10.528;2022-10-31T17:55:43;101201.31;;;13.73;88.09
76108;BME280;64834;52.516;10.528;2022-10-31T17:58:09;101189.72;;;13.69;88.36
76108;BME280;64834;52.516;10.528;2022-10-31T18:00:37;101192.53;;;13.72;88.61
76108;BME280;64834;52.516;10.528;2022-10-31T18:03:02;101182.91;;;13.73;88.64
76108;BME280;64834;52.516;10.528;2022-10-31T18:05:28;101179.22;;;13.69;88.95
76108;BME280;64834;52.516;10.528;2022-10-31T18:07:53;101185.31;;;13.68;88.91
76108;BME280;64834;52.516;10.528;2022-10-31T18:10:18;101180.03;;;13.68;89.03
76108;BME280;64834;52.516;10.528;2022-10-31T18:12:44;101178.41;;;13.70;89.10
76108;BME280;64834;52.516;10.528;2022-10-31T18:15:09;101178.41;;;13.70;89.34
76108;BME280;64834;52.516;10.528;2022-10-31T18:17:35;101178.41;;;13.70;89.24
76108;BME280;64834;52.516;10.528;2022-10-31T18:20:00;101176.38;;;13.65;89.74
76108;BME280;64834;52.516;10.528;2022-10-31T18:22:25;101174.72;;;13.67;89.53
76108;BME280;64834;52.516;10.528;2022-10-31T18:24:51;101164.25;;;13.68;89.80
76108;BME280;64834;52.516;10.528;2022-10-31T18:27:16;101164.34;;;13.70;89.62
76108;BME280;64834;52.516;10.528;2022-10-31T18:29:41;101158.69;;;13.62;89.84
76108;BME280;64834;52.516;10.528;2022-10-31T18:32:07;101157.97;;;13.65;89.92
76108;BME280;64834;52.516;10.528;2022-10-31T18:34:33;101166.59;;;13.62;90.01
76108;BME280;64834;52.516;10.528;2022-10-31T18:36:58;101155.91;;;13.59;90.10
76108;BME280;64834;52.516;10.528;2022-10-31T18:39:24;101156.44;;;13.70;89.63
76108;BME280;64834;52.516;10.528;2022-10-31T18:41:49;101154.75;;;13.70;89.72
76108;BME280;64834;52.516;10.528;2022-10-31T18:44:14;101153.97;;;13.73;89.45
76108;BME280;64834;52.516;10.528;2022-10-31T18:46:40;101139.88;;;13.71;89.56
76108;BME280;64834;52.516;10.528;2022-10-31T18:49:05;101137.22;;;13.71;89.97
76108;BME280;64834;52.516;10.528;2022-10-31T18:51:30;101135.91;;;13.63;90.25
76108;BME280;64834;52.516;10.528;2022-10-31T18:53:58;101131.81;;;13.68;89.96
76108;BME280;64834;52.516;10.528;2022-10-31T18:56:24;101131.56;;;13.63;90.27
76108;BME280;64834;52.516;10.528;2022-10-31T18:58:50;101128.03;;;13.63;90.55
76108;BME280;64834;52.516;10.528;2022-10-31T19:01:16;101131.56;;;13.63;90.65
76108;BME280;64834;52.516;10.528;2022-10-31T19:03:42;101127.00;;;13.59;90.91
76108;BME280;64834;52.516;10.528;2022-10-31T19:06:08;101125.50;;;13.64;90.89
76108;BME280;64834;52.516;10.528;2022-10-31T19:08:38;101126.53;;;13.68;90.42
76108;BME280;64834;52.516;10.528;2022-10-31T19:11:08;101130.91;;;13.67;90.92
76108;BME280;64834;52.516;10.528;2022-10-31T19:13:35;101126.41;;;13.65;91.18
76108;BME280;64834;52.516;10.528;2022-10-31T19:16:05;101120.38;;;13.67;90.74
76108;BME280;64834;52.516;10.528;2022-10-31T19:18:31;101108.91;;;13.65;91.08
76108;BME280;64834;52.516;10.528;2022-10-31T19:20:56;101109.78;;;13.66;91.22
76108;BME280;64834;52.516;10.528;2022-10-31T19:23:21;101100.09;;;13.65;91.25
76108;BME280;64834;52.516;10.528;2022-10-31T19:25:47;101100.25;;;13.68;91.11
76108;BME280;64834;52.516;10.528;2022-10-31T19:28:12;101103.84;;;13.70;91.23
76108;BME280;64834;52.516;10.528;2022-10-31T19:30:37;101098.50;;;13.68;91.25
76108;BME280;64834;52.516;10.528;2022-10-31T19:33:03;101094.97;;;13.68;91.51
76108;BME280;64834;52.516;10.528;2022-10-31T19:35:28;101090.63;;;13.68;91.64
76108;BME280;64834;52.516;10.528;2022-10-31T19:37:54;101081.91;;;13.69;91.67
76108;BME280;64834;52.516;10.528;2022-10-31T19:40:19;101084.47;;;13.68;91.92
76108;BME280;64834;52.516;10.528;2022-10-31T19:42:44;101081.16;;;13.72;91.85
76108;BME280;64834;52.516;10.528;2022-10-31T19:45:10;101084.69;;;13.72;91.52
76108;BME280;64834;52.516;10.528;2022-10-31T19:47:35;101087.69;;;13.80;91.57
76108;BME280;64834;52.516;10.528;2022-10-31T19:50:00;101082.38;;;13.79;91.01
76108;BME280;64834;52.516;10.528;2022-10-31T19:52:32;101079.66;;;13.77;91.73
76108;BME280;64834;52.516;10.528;2022-10-31T19:54:57;101074.31;;;13.75;91.37
76108;BME280;64834;52.516;10.528;2022-10-31T19:57:22;101078.91;;;13.80;91.42
76108;BME280;64834;52.516;10.528;2022-10-31T19:59:48;101078.00;;;13.79;91.63
76108;BME280;64834;52.516;10.528;2022-10-31T20:02:13;101071.91;;;13.80;91.56
76108;BME280;64834;52.516;10.528;2022-10-31T20:04:43;101082.72;;;13.86;91.29
76108;BME280;64834;52.516;10.528;2022-10-31T20:07:09;101079.19;;;13.86;91.36
76108;BME280;64834;52.516;10.528;2022-10-31T20:09:34;101079.88;;;13.82;91.14
76108;BME280;64834;52.516;10.528;2022-10-31T20:12:00;101074.16;;;13.90;91.09
76108;BME280;64834;52.516;10.528;2022-10-31T20:14:25;101075.06;;;13.91;90.68
76108;BME280;64834;52.516;10.528;2022-10-31T20:16:52;101080.34;;;13.91;91.17
76108;BME280;64834;52.516;10.528;2022-10-31T20:19:17;101062.75;;;13.90;91.15
76108;BME280;64834;52.516;10.528;2022-10-31T20:21:42;101073.03;;;13.85;91.29
76108;BME280;64834;52.516;10.528;2022-10-31T20:24:09;101059.06;;;13.86;91.33
76108;BME280;64834;52.516;10.528;2022-10-31T20:26:36;101057.19;;;13.84;91.18
76108;BME280;64834;52.516;10.528;2022-10-31T20:29:02;101055.16;;;13.78;91.40
76108;BME280;64834;52.516;10.528;2022-10-31T20:31:30;101040.22;;;13.77;91.47
76108;BME280;64834;52.516;10.528;2022-10-31T20:33:56;101039.38;;;13.78;91.53
76108;BME280;64834;52.516;10.528;2022-10-31T20:36:22;101036.53;;;13.73;91.73
76108;BME280;64834;52.516;10.528;2022-10-31T20:38:49;101032.16;;;13.74;91.56
76108;BME280;64834;52.516;10.528;2022-10-31T20:41:15;101027.81;;;13.74;91.78
76108;BME280;64834;52.516;10.528;2022-10-31T20:43:41;101025.22;;;13.76;91.66
76108;BME280;64834;52.516;10.528;2022-10-31T20:46:10;101025.22;;;13.76;91.77
76108;BME280;64834;52.516;10.528;2022-10-31T20:48:36;101011.78;;;13.70;91.98
76108;BME280;64834;52.516;10.528;2022-10-31T20:51:04;101008.44;;;13.72;91.98
76108;BME280;64834;52.516;10.528;2022-10-31T20:53:30;101006.75;;;13.74;91.37
76108;BME280;64834;52.516;10.528;2022-10-31T20:56:10;101003.16;;;13.72;91.91
76108;BME280;64834;52.516;10.528;2022-10-31T20:58:35;101007.53;;;13.72;91.82
76108;BME280;64834;52.516;10.528;2022-10-31T21:01:02;101011.00;;;13.71;91.96
76108;BME280;64834;52.516;10.528;2022-10-31T21:03:28;101007.53;;;13.72;92.12
76108;BME280;64834;52.516;10.528;2022-10-31T21:05:58;100997.69;;;13.68;91.75
76108;BME280;64834;52.516;10.528;2022-10-31T21:08:25;100995.13;;;13.69;91.89
76108;BME280;64834;52.516;10.528;2022-10-31T21:10:51;100991.44;;;13.66;91.66
76108;BME280;64834;52.516;10.528;2022-10-31T21:13:16;100987.75;;;13.62;91.73
76108;BME280;64834;52.516;10.528;2022-10-31T21:15:42;100982.66;;;13.65;91.80
76108;BME280;64834;52.516;10.528;2022-10-31T21:18:07;100978.13;;;13.63;91.74
76108;BME280;64834;52.516;10.528;2022-10-31T21:20:33;100970.41;;;13.66;91.73
76108;BME280;64834;52.516;10.528;2022-10-31T21:22:58;100969.34;;;13.62;91.75
76108;BME280;64834;52.516;10.528;2022-10-31T21:25:23;100954.28;;;13.58;92.00
76108;BME280;64834;52.516;10.528;2022-10-31T21:27:49;100948.25;;;13.61;91.79
76108;BME280;64834;52.516;10.528;2022-10-31T21:30:14;100953.56;;;13.62;91.65
76108;BME280;64834;52.516;10.528;2022-10-31T21:32:39;100943.81;;;13.60;91.77
76108;BME280;64834;52.516;10.528;2022-10-31T21:35:05;100949.91;;;13.59;92.09
76108;BME280;64834;52.516;10.528;2022-10-31T21:37:30;100949.75;;;13.56;91.99
76108;BME280;64834;52.516;10.528;2022-10-31T21:39:56;100958.00;;;13.63;91.52
76108;BME280;64834;52.516;10.528;2022-10-31T21:42:21;100959.72;;;13.63;91.38
76108;BME280;64834;52.516;10.528;2022-10-31T21:44:48;100965.00;;;13.63;91.47
76108;BME280;64834;52.516;10.528;2022-10-31T21:47:14;100963.97;;;13.59;91.61
76108;BME280;64834;52.516;10.528;2022-10-31T21:49:39;100961.53;;;13.64;91.45
76108;BME280;64834;52.516;10.528;2022-10-31T21:52:05;100957.94;;;13.62;91.41
76108;BME280;64834;52.516;10.528;2022-10-31T21:54:31;100959.59;;;13.60;91.77
76108;BME280;64834;52.516;10.528;2022-10-31T21:56:58;100956.19;;;13.62;91.71
76108;BME280;64834;52.516;10.528;2022-10-31T21:59:24;100951.78;;;13.61;91.70
76108;BME280;64834;52.516;10.528;2022-10-31T22:01:50;100954.34;;;13.60;91.55
76108;BME280;64834;52.516;10.528;2022-10-31T22:04:16;100944.72;;;13.60;91.69
76108;BME280;64834;52.516;10.528;2022-10-31T22:06:42;100935.78;;;13.57;91.78
76108;BME280;64834;52.516;10.528;2022-10-31T22:09:09;100941.94;;;13.57;91.98
76108;BME280;64834;52.516;10.528;2022-10-31T22:11:35;100939.19;;;13.54;91.85
76108;BME280;64834;52.516;10.528;2022-10-31T22:14:01;100934.22;;;13.60;91.44
76108;BME280;64834;52.516;10.528;2022-10-31T22:16:28;100920.78;;;13.54;91.53
76108;BME280;64834;52.516;10.528;2022-10-31T22:18:56;100913.78;;;13.55;91.71
76108;BME280;64834;52.516;10.528;2022-10-31T22:21:24;100905.06;;;13.56;91.60
76108;BME280;64834;52.516;10.528;2022-10-31T22:23:51;100895.97;;;13.49;92.00
76108;BME280;64834;52.516;10.528;2022-10-31T22:26:17;100899.50;;;13.49;92.38
76108;BME280;64834;52.516;10.528;2022-10-31T22:28:48;100903.94;;;13.50;92.14
76108;BME280;64834;52.516;10.528;2022-10-31T22:31:16;100902.22;;;13.51;92.58
76108;BME280;64834;52.516;10.528;2022-10-31T22:33:42;100902.06;;;13.48;92.13
76108;BME280;64834;52.516;10.528;2022-10-31T22:36:11;100892.53;;;13.50;92.25
76108;BME280;64834;52.516;10.528;2022-10-31T22:38:37;100888.16;;;13.50;92.20
76108;BME280;64834;52.516;10.528;2022-10-31T22:41:26;100894.41;;;13.53;92.37
76108;BME280;64834;52.516;10.528;2022-10-31T22:43:50;100883.75;;;13.49;92.00
76108;BME280;64834;52.516;10.528;2022-10-31T22:46:18;100886.31;;;13.48;92.45
76108;BME280;64834;52.516;10.528;2022-10-31T22:48:46;100884.63;;;13.50;92.16
76108;BME280;64834;52.516;10.528;2022-10-31T22:51:23;100882.72;;;13.46;92.22
76108;BME280;64834;52.516;10.528;2022-10-31T22:53:49;100868.78;;;13.48;92.15
76108;BME280;64834;52.516;10.528;2022-10-31T22:56:19;100869.06;;;13.35;92.46
76108;BME280;64834;52.516;10.528;2022-10-31T22:58:46;100870.13;;;13.39;92.70
76108;BME280;64834;52.516;10.528;2022-10-31T23:01:17;100864.75;;;13.37;92.31
76108;BME280;64834;52.516;10.528;2022-10-31T23:03:43;100857.47;;;13.32;92.47
76108;BME280;64834;52.516;10.528;2022-10-31T23:06:11;100848.88;;;13.34;92.21
76108;BME280;64834;52.516;10.528;2022-10-31T23:08:37;100857.66;;;13.35;92.57
76108;BME280;64834;52.516;10.528;2022-10-31T23:13:38;100853.22;;;13.34;92.45
76108;BME280;64834;52.516;10.528;2022-10-31T23:16:21;100849.00;;;13.37;92.24
76108;BME280;64834;52.516;10.528;2022-10-31T23:18:47;100863.50;;;13.29;92.30
76108;BME280;64834;52.516;10.528;2022-10-31T23:21:12;100853.84;;;13.28;92.36
76108;BME280;64834;52.516;10.528;2022-10-31T23:23:57;100856.59;;;13.31;92.33
76108;BME280;64834;52.516;10.528;2022-10-31T23:26:23;100850.66;;;13.35;92.17
76108;BME280;64834;52.516;10.528;2022-10-31T23:29:07;100852.44;;;13.18;92.14
76108;BME280;64834;52.516;10.528;2022-10-31T23:31:32;100847.69;;;13.28;91.78
76108;BME280;64834;52.516;10.528;2022-10-31T23:33:57;100840.81;;;13.31;92.04
76108;BME280;64834;52.516;10.528;2022-10-31T23:36:23;100843.25;;;13.27;92.09
76108;BME280;64834;52.516;10.528;2022-10-31T23:38:48;100832.66;;;13.25;92.41
76108;BME280;64834;52.516;10.528;2022-10-31T23:41:15;100838.47;;;13.19;92.51
76108;BME280;64834;52.516;10.528;2022-10-31T23:43:40;100839.25;;;13.17;92.20
76108;BME280;64834;52.516;10.528;2022-10-31T23:46:05;100833.22;;;13.19;92.13
76108;BME280;64834;52.516;10.528;2022-10-31T23:48:31;100830.47;;;13.16;92.45
76108;BME280;64834;52.516;10.528;2022-10-31T23:50:56;100826.72;;;13.11;92.63
76108;BME280;64834;52.516;10.528;2022-10-31T23:53:21;100830.25;;;13.12;92.61
76108;BME280;64834;52.516;10.528;2022-10-31T23:55:47;100844.75;;;13.04;92.55
76108;BME280;64834;52.516;10.528;2022-10-31T23:58:12;100848.50;;;13.09;92.64
